sensor_id;sensor_type;location;lat;lon;timestamp;P1;durP1;ratioP1;P2;durP2;ratioP2
11933;SDS011;6026;48.784;9.198;2022-08-21T00:01:28;0.77;;;0.77;;
11933;SDS011;6026;48.784;9.198;2022-08-21T00:03:55;0.77;;;0.77;;
11933;SDS011;6026;48.784;9.198;2022-08-21T00:06:21;0.60;;;0.60;;
11933;SDS011;6026;48.784;9.198;2022-08-21T00:08:48;0.80;;;0.80;;
11933;SDS011;6026;48.784;9.198;2022-08-21T00:11:15;0.83;;;0.83;;
11933;SDS011;6026;48.784;9.198;2022-08-21T00:13:41;0.80;;;0.80;;
11933;SDS011;6026;48.784;9.198;2022-08-21T00:16:06;0.87;;;0.87;;
11933;SDS011;6026;48.784;9.198;2022-08-21T00:18:32;0.87;;;0.87;;
11933;SDS011;6026;48.784;9.198;2022-08-21T00:20:58;0.80;;;0.80;;
11933;SDS011;6026;48.784;9.198;2022-08-21T00:23:23;0.70;;;0.70;;
11933;SDS011;6026;48.784;9.198;2022-08-21T00:25:49;0.80;;;0.80;;
11933;SDS011;6026;48.784;9.198;2022-08-21T00:28:15;0.80;;;0.80;;
11933;SDS011;6026;48.784;9.198;2022-08-21T00:30:40;0.80;;;0.80;;
11933;SDS011;6026;48.784;9.198;2022-08-21T00:33:07;0.70;;;0.70;;
11933;SDS011;6026;48.784;9.198;2022-08-21T00:35:35;0.70;;;0.70;;
11933;SDS011;6026;48.784;9.198;2022-08-21T00:38:02;0.60;;;0.60;;
11933;SDS011;6026;48.784;9.198;2022-08-21T00:40:32;0.70;;;0.70;;
11933;SDS011;6026;48.784;9.198;2022-08-21T00:43:05;0.70;;;0.70;;
11933;SDS011;6026;48.784;9.198;2022-08-21T00:45:32;0.90;;;0.90;;
11933;SDS011;6026;48.784;9.198;2022-08-21T00:47:58;0.80;;;0.80;;
11933;SDS011;6026;48.784;9.198;2022-08-21T00:50:26;0.60;;;0.60;;
11933;SDS011;6026;48.784;9.198;2022-08-21T00:52:56;0.80;;;0.80;;
11933;SDS011;6026;48.784;9.198;2022-08-21T00:55:23;0.67;;;0.67;;
11933;SDS011;6026;48.784;9.198;2022-08-21T00:57:51;0.73;;;0.73;;
11933;SDS011;6026;48.784;9.198;2022-08-21T01:00:23;0.90;;;0.90;;
11933;SDS011;6026;48.784;9.198;2022-08-21T01:03:01;0.70;;;0.70;;
11933;SDS011;6026;48.784;9.198;2022-08-21T01:05:30;0.70;;;0.70;;
11933;SDS011;6026;48.784;9.198;2022-08-21T01:07:56;0.77;;;0.77;;
11933;SDS011;6026;48.784;9.198;2022-08-21T01:10:22;0.83;;;0.83;;
11933;SDS011;6026;48.784;9.198;2022-08-21T01:12:48;0.90;;;0.90;;
11933;SDS011;6026;48.784;9.198;2022-08-21T01:15:16;0.70;;;0.70;;
11933;SDS011;6026;48.784;9.198;2022-08-21T01:17:45;0.90;;;0.90;;
11933;SDS011;6026;48.784;9.198;2022-08-21T01:20:12;0.87;;;0.87;;
11933;SDS011;6026;48.784;9.198;2022-08-21T01:22:38;0.90;;;0.90;;
11933;SDS011;6026;48.784;9.198;2022-08-21T01:25:04;0.90;;;0.90;;
11933;SDS011;6026;48.784;9.198;2022-08-21T01:27:31;0.73;;;0.73;;
11933;SDS011;6026;48.784;9.198;2022-08-21T01:29:58;0.80;;;0.80;;
11933;SDS011;6026;48.784;9.198;2022-08-21T01:32:32;0.67;;;0.67;;
11933;SDS011;6026;48.784;9.198;2022-08-21T01:34:58;0.77;;;0.77;;
11933;SDS011;6026;48.784;9.198;2022-08-21T01:37:24;0.70;;;0.70;;
11933;SDS011;6026;48.784;9.198;2022-08-21T01:39:50;0.90;;;0.90;;
11933;SDS011;6026;48.784;9.198;2022-08-21T01:42:16;0.80;;;0.80;;
11933;SDS011;6026;48.784;9.198;2022-08-21T01:44:42;0.80;;;0.80;;
11933;SDS011;6026;48.784;9.198;2022-08-21T01:47:09;0.50;;;0.50;;
11933;SDS011;6026;48.784;9.198;2022-08-21T01:52:26;0.70;;;0.70;;
11933;SDS011;6026;48.784;9.198;2022-08-21T01:54:51;0.60;;;0.60;;
11933;SDS011;6026;48.784;9.198;2022-08-21T01:57:17;0.73;;;0.73;;
11933;SDS011;6026;48.784;9.198;2022-08-21T01:59:43;0.80;;;0.80;;
11933;SDS011;6026;48.784;9.198;2022-08-21T02:02:08;0.90;;;0.90;;
11933;SDS011;6026;48.784;9.198;2022-08-21T02:04:34;0.70;;;0.70;;
11933;SDS011;6026;48.784;9.198;2022-08-21T02:07:00;0.73;;;0.73;;
11933;SDS011;6026;48.784;9.198;2022-08-21T02:09:27;0.87;;;0.87;;
11933;SDS011;6026;48.784;9.198;2022-08-21T02:11:53;0.80;;;0.80;;
11933;SDS011;6026;48.784;9.198;2022-08-21T02:14:19;0.70;;;0.70;;
11933;SDS011;6026;48.784;9.198;2022-08-21T02:16:45;0.80;;;0.80;;
11933;SDS011;6026;48.784;9.198;2022-08-21T02:19:11;1.00;;;1.00;;
11933;SDS011;6026;48.784;9.198;2022-08-21T02:21:38;0.50;;;0.50;;
11933;SDS011;6026;48.784;9.198;2022-08-21T02:24:04;0.60;;;0.60;;
11933;SDS011;6026;48.784;9.198;2022-08-21T02:26:30;0.80;;;0.80;;
11933;SDS011;6026;48.784;9.198;2022-08-21T02:28:56;0.53;;;0.53;;
11933;SDS011;6026;48.784;9.198;2022-08-21T02:31:22;0.80;;;0.80;;
11933;SDS011;6026;48.784;9.198;2022-08-21T02:33:47;0.80;;;0.80;;
11933;SDS011;6026;48.784;9.198;2022-08-21T02:36:13;0.87;;;0.87;;
11933;SDS011;6026;48.784;9.198;2022-08-21T02:38:40;0.80;;;0.80;;
11933;SDS011;6026;48.784;9.198;2022-08-21T02:41:08;0.73;;;0.73;;
11933;SDS011;6026;48.784;9.198;2022-08-21T02:43:39;0.70;;;0.70;;
11933;SDS011;6026;48.784;9.198;2022-08-21T02:46:05;0.67;;;0.67;;
11933;SDS011;6026;48.784;9.198;2022-08-21T02:48:32;0.60;;;0.60;;
11933;SDS011;6026;48.784;9.198;2022-08-21T02:51:07;0.60;;;0.60;;
11933;SDS011;6026;48.784;9.198;2022-08-21T02:53:35;0.80;;;0.80;;
11933;SDS011;6026;48.784;9.198;2022-08-21T02:56:02;0.90;;;0.90;;
11933;SDS011;6026;48.784;9.198;2022-08-21T02:58:32;0.80;;;0.80;;
11933;SDS011;6026;48.784;9.198;2022-08-21T03:01:00;0.90;;;0.90;;
11933;SDS011;6026;48.784;9.198;2022-08-21T03:03:26;0.60;;;0.60;;
11933;SDS011;6026;48.784;9.198;2022-08-21T03:05:53;0.80;;;0.80;;
11933;SDS011;6026;48.784;9.198;2022-08-21T03:08:19;0.70;;;0.70;;
11933;SDS011;6026;48.784;9.198;2022-08-21T03:10:47;0.70;;;0.70;;
11933;SDS011;6026;48.784;9.198;2022-08-21T03:13:16;0.77;;;0.77;;
11933;SDS011;6026;48.784;9.198;2022-08-21T03:15:43;1.00;;;1.00;;
11933;SDS011;6026;48.784;9.198;2022-08-21T03:18:09;0.73;;;0.73;;
11933;SDS011;6026;48.784;9.198;2022-08-21T03:20:36;0.70;;;0.70;;
11933;SDS011;6026;48.784;9.198;2022-08-21T03:23:04;0.80;;;0.80;;
11933;SDS011;6026;48.784;9.198;2022-08-21T03:25:31;0.80;;;0.80;;
11933;SDS011;6026;48.784;9.198;2022-08-21T03:27:57;0.80;;;0.80;;
11933;SDS011;6026;48.784;9.198;2022-08-21T03:30:23;0.90;;;0.90;;
11933;SDS011;6026;48.784;9.198;2022-08-21T03:32:49;0.80;;;0.80;;
11933;SDS011;6026;48.784;9.198;2022-08-21T03:35:16;0.90;;;0.90;;
11933;SDS011;6026;48.784;9.198;2022-08-21T03:37:42;0.70;;;0.70;;
11933;SDS011;6026;48.784;9.198;2022-08-21T03:40:08;0.80;;;0.80;;
11933;SDS011;6026;48.784;9.198;2022-08-21T03:42:36;0.90;;;0.90;;
11933;SDS011;6026;48.784;9.198;2022-08-21T03:45:02;0.80;;;0.80;;
11933;SDS011;6026;48.784;9.198;2022-08-21T03:47:29;0.70;;;0.70;;
11933;SDS011;6026;48.784;9.198;2022-08-21T03:49:54;0.70;;;0.70;;
11933;SDS011;6026;48.784;9.198;2022-08-21T03:52:20;0.77;;;0.77;;
11933;SDS011;6026;48.784;9.198;2022-08-21T03:58:08;0.67;;;0.67;;
11933;SDS011;6026;48.784;9.198;2022-08-21T04:00:34;0.80;;;0.80;;
11933;SDS011;6026;48.784;9.198;2022-08-21T04:03:00;0.90;;;0.90;;
11933;SDS011;6026;48.784;9.198;2022-08-21T04:05:25;0.73;;;0.73;;
11933;SDS011;6026;48.784;9.198;2022-08-21T04:07:55;0.60;;;0.60;;
11933;SDS011;6026;48.784;9.198;2022-08-21T04:10:23;0.80;;;0.80;;
11933;SDS011;6026;48.784;9.198;2022-08-21T04:12:50;0.83;;;0.83;;
11933;SDS011;6026;48.784;9.198;2022-08-21T04:15:16;0.70;;;0.70;;
11933;SDS011;6026;48.784;9.198;2022-08-21T04:17:41;0.70;;;0.70;;
11933;SDS011;6026;48.784;9.198;2022-08-21T04:20:07;0.87;;;0.87;;
11933;SDS011;6026;48.784;9.198;2022-08-21T04:22:33;0.60;;;0.60;;
11933;SDS011;6026;48.784;9.198;2022-08-21T04:24:59;0.90;;;0.90;;
11933;SDS011;6026;48.784;9.198;2022-08-21T04:27:24;0.87;;;0.87;;
11933;SDS011;6026;48.784;9.198;2022-08-21T04:29:50;0.67;;;0.67;;
11933;SDS011;6026;48.784;9.198;2022-08-21T04:32:22;0.80;;;0.80;;
11933;SDS011;6026;48.784;9.198;2022-08-21T04:34:48;0.77;;;0.77;;
11933;SDS011;6026;48.784;9.198;2022-08-21T04:37:14;0.90;;;0.90;;
11933;SDS011;6026;48.784;9.198;2022-08-21T04:39:40;0.80;;;0.80;;
11933;SDS011;6026;48.784;9.198;2022-08-21T04:42:07;0.90;;;0.90;;
11933;SDS011;6026;48.784;9.198;2022-08-21T04:44:33;0.83;;;0.83;;
11933;SDS011;6026;48.784;9.198;2022-08-21T04:46:59;0.83;;;0.83;;
11933;SDS011;6026;48.784;9.198;2022-08-21T04:49:25;0.80;;;0.80;;
11933;SDS011;6026;48.784;9.198;2022-08-21T04:51:51;0.70;;;0.70;;
11933;SDS011;6026;48.784;9.198;2022-08-21T04:54:18;0.60;;;0.60;;
11933;SDS011;6026;48.784;9.198;2022-08-21T04:56:47;0.80;;;0.80;;
11933;SDS011;6026;48.784;9.198;2022-08-21T04:59:33;0.63;;;0.63;;
11933;SDS011;6026;48.784;9.198;2022-08-21T05:02:03;0.83;;;0.83;;
11933;SDS011;6026;48.784;9.198;2022-08-21T05:04:32;0.70;;;0.70;;
11933;SDS011;6026;48.784;9.198;2022-08-21T05:06:59;0.80;;;0.80;;
11933;SDS011;6026;48.784;9.198;2022-08-21T05:09:29;0.83;;;0.83;;
11933;SDS011;6026;48.784;9.198;2022-08-21T05:11:55;0.90;;;0.90;;
11933;SDS011;6026;48.784;9.198;2022-08-21T05:14:21;0.60;;;0.60;;
11933;SDS011;6026;48.784;9.198;2022-08-21T05:16:47;0.80;;;0.80;;
11933;SDS011;6026;48.784;9.198;2022-08-21T05:19:12;0.90;;;0.90;;
11933;SDS011;6026;48.784;9.198;2022-08-21T05:21:40;0.90;;;0.90;;
11933;SDS011;6026;48.784;9.198;2022-08-21T05:24:07;0.87;;;0.87;;
11933;SDS011;6026;48.784;9.198;2022-08-21T05:26:33;0.80;;;0.80;;
11933;SDS011;6026;48.784;9.198;2022-08-21T05:31:55;0.60;;;0.60;;
11933;SDS011;6026;48.784;9.198;2022-08-21T05:34:21;0.77;;;0.77;;
11933;SDS011;6026;48.784;9.198;2022-08-21T05:36:48;0.70;;;0.70;;
11933;SDS011;6026;48.784;9.198;2022-08-21T05:39:13;0.70;;;0.70;;
11933;SDS011;6026;48.784;9.198;2022-08-21T05:41:39;0.80;;;0.80;;
11933;SDS011;6026;48.784;9.198;2022-08-21T05:44:05;0.80;;;0.80;;
11933;SDS011;6026;48.784;9.198;2022-08-21T05:46:31;0.97;;;0.97;;
11933;SDS011;6026;48.784;9.198;2022-08-21T05:48:56;0.53;;;0.53;;
11933;SDS011;6026;48.784;9.198;2022-08-21T05:51:22;0.80;;;0.80;;
11933;SDS011;6026;48.784;9.198;2022-08-21T05:53:48;0.70;;;0.70;;
11933;SDS011;6026;48.784;9.198;2022-08-21T05:56:14;0.63;;;0.63;;
11933;SDS011;6026;48.784;9.198;2022-08-21T05:58:40;0.87;;;0.87;;
11933;SDS011;6026;48.784;9.198;2022-08-21T06:01:06;0.77;;;0.77;;
11933;SDS011;6026;48.784;9.198;2022-08-21T06:03:35;0.60;;;0.60;;
11933;SDS011;6026;48.784;9.198;2022-08-21T06:06:02;0.77;;;0.77;;
11933;SDS011;6026;48.784;9.198;2022-08-21T06:08:28;0.80;;;0.80;;
11933;SDS011;6026;48.784;9.198;2022-08-21T06:10:55;0.70;;;0.70;;
11933;SDS011;6026;48.784;9.198;2022-08-21T06:13:23;0.70;;;0.70;;
11933;SDS011;6026;48.784;9.198;2022-08-21T06:15:49;0.70;;;0.70;;
11933;SDS011;6026;48.784;9.198;2022-08-21T06:18:15;0.70;;;0.70;;
11933;SDS011;6026;48.784;9.198;2022-08-21T06:20:41;0.90;;;0.90;;
11933;SDS011;6026;48.784;9.198;2022-08-21T06:23:07;0.50;;;0.50;;
11933;SDS011;6026;48.784;9.198;2022-08-21T06:25:32;0.70;;;0.70;;
11933;SDS011;6026;48.784;9.198;2022-08-21T06:28:03;0.70;;;0.70;;
11933;SDS011;6026;48.784;9.198;2022-08-21T06:30:34;0.80;;;0.80;;
11933;SDS011;6026;48.784;9.198;2022-08-21T06:33:02;0.80;;;0.80;;
11933;SDS011;6026;48.784;9.198;2022-08-21T06:35:28;0.70;;;0.70;;
11933;SDS011;6026;48.784;9.198;2022-08-21T06:37:55;0.67;;;0.67;;
11933;SDS011;6026;48.784;9.198;2022-08-21T06:40:21;0.70;;;0.70;;
11933;SDS011;6026;48.784;9.198;2022-08-21T06:42:47;0.57;;;0.57;;
11933;SDS011;6026;48.784;9.198;2022-08-21T06:45:13;0.70;;;0.70;;
11933;SDS011;6026;48.784;9.198;2022-08-21T06:47:39;0.80;;;0.80;;
11933;SDS011;6026;48.784;9.198;2022-08-21T06:50:05;0.90;;;0.90;;
11933;SDS011;6026;48.784;9.198;2022-08-21T06:52:32;0.80;;;0.80;;
11933;SDS011;6026;48.784;9.198;2022-08-21T06:57:33;0.90;;;0.90;;
11933;SDS011;6026;48.784;9.198;2022-08-21T06:59:59;0.70;;;0.70;;
11933;SDS011;6026;48.784;9.198;2022-08-21T07:02:24;0.80;;;0.80;;
11933;SDS011;6026;48.784;9.198;2022-08-21T07:04:50;0.88;;;0.88;;
11933;SDS011;6026;48.784;9.198;2022-08-21T07:07:16;0.73;;;0.73;;
11933;SDS011;6026;48.784;9.198;2022-08-21T07:09:42;0.90;;;0.90;;
11933;SDS011;6026;48.784;9.198;2022-08-21T07:12:07;0.90;;;0.90;;
11933;SDS011;6026;48.784;9.198;2022-08-21T07:14:34;0.90;;;0.90;;
11933;SDS011;6026;48.784;9.198;2022-08-21T07:17:00;0.90;;;0.90;;
11933;SDS011;6026;48.784;9.198;2022-08-21T07:22:47;0.90;;;0.90;;
11933;SDS011;6026;48.784;9.198;2022-08-21T07:25:13;0.60;;;0.60;;
11933;SDS011;6026;48.784;9.198;2022-08-21T07:27:55;0.80;;;0.80;;
11933;SDS011;6026;48.784;9.198;2022-08-21T07:30:21;0.70;;;0.70;;
11933;SDS011;6026;48.784;9.198;2022-08-21T07:32:47;0.77;;;0.77;;
11933;SDS011;6026;48.784;9.198;2022-08-21T07:35:16;0.80;;;0.80;;
11933;SDS011;6026;48.784;9.198;2022-08-21T07:37:43;0.80;;;0.80;;
11933;SDS011;6026;48.784;9.198;2022-08-21T07:40:09;0.70;;;0.70;;
11933;SDS011;6026;48.784;9.198;2022-08-21T07:42:39;0.80;;;0.80;;
11933;SDS011;6026;48.784;9.198;2022-08-21T07:45:09;0.82;;;0.82;;
11933;SDS011;6026;48.784;9.198;2022-08-21T07:47:36;0.90;;;0.90;;
11933;SDS011;6026;48.784;9.198;2022-08-21T07:50:03;0.90;;;0.90;;
11933;SDS011;6026;48.784;9.198;2022-08-21T07:52:31;0.90;;;0.90;;
11933;SDS011;6026;48.784;9.198;2022-08-21T07:57:47;0.80;;;0.80;;
11933;SDS011;6026;48.784;9.198;2022-08-21T08:00:14;1.00;;;1.00;;
11933;SDS011;6026;48.784;9.198;2022-08-21T08:02:44;0.80;;;0.80;;
11933;SDS011;6026;48.784;9.198;2022-08-21T08:05:14;0.88;;;0.88;;
11933;SDS011;6026;48.784;9.198;2022-08-21T08:07:40;0.90;;;0.90;;
11933;SDS011;6026;48.784;9.198;2022-08-21T08:10:06;1.00;;;1.00;;
11933;SDS011;6026;48.784;9.198;2022-08-21T08:12:37;0.88;;;0.88;;
11933;SDS011;6026;48.784;9.198;2022-08-21T08:15:05;0.80;;;0.80;;
11933;SDS011;6026;48.784;9.198;2022-08-21T08:17:35;0.90;;;0.90;;
11933;SDS011;6026;48.784;9.198;2022-08-21T08:20:02;0.90;;;0.90;;
11933;SDS011;6026;48.784;9.198;2022-08-21T08:22:28;0.90;;;0.90;;
11933;SDS011;6026;48.784;9.198;2022-08-21T08:24:54;0.90;;;0.90;;
11933;SDS011;6026;48.784;9.198;2022-08-21T08:27:21;0.93;;;0.93;;
11933;SDS011;6026;48.784;9.198;2022-08-21T08:29:46;1.00;;;1.00;;
11933;SDS011;6026;48.784;9.198;2022-08-21T08:32:12;0.90;;;0.90;;
11933;SDS011;6026;48.784;9.198;2022-08-21T08:34:38;0.90;;;0.90;;
11933;SDS011;6026;48.784;9.198;2022-08-21T08:37:05;0.90;;;0.90;;
11933;SDS011;6026;48.784;9.198;2022-08-21T08:39:32;1.00;;;1.00;;
11933;SDS011;6026;48.784;9.198;2022-08-21T08:45:06;1.00;;;1.00;;
11933;SDS011;6026;48.784;9.198;2022-08-21T08:47:38;0.90;;;0.90;;
11933;SDS011;6026;48.784;9.198;2022-08-21T08:50:08;1.00;;;1.00;;
11933;SDS011;6026;48.784;9.198;2022-08-21T08:52:43;1.00;;;1.00;;
11933;SDS011;6026;48.784;9.198;2022-08-21T08:55:46;1.00;;;1.00;;
11933;SDS011;6026;48.784;9.198;2022-08-21T08:58:07;1.10;;;1.10;;
11933;SDS011;6026;48.784;9.198;2022-08-21T09:00:39;1.00;;;1.00;;
11933;SDS011;6026;48.784;9.198;2022-08-21T09:03:05;1.00;;;1.00;;
11933;SDS011;6026;48.784;9.198;2022-08-21T09:05:36;1.00;;;1.00;;
11933;SDS011;6026;48.784;9.198;2022-08-21T09:24:55;1.00;;;1.00;;
11933;SDS011;6026;48.784;9.198;2022-08-21T09:27:25;1.10;;;1.10;;
11933;SDS011;6026;48.784;9.198;2022-08-21T09:29:52;1.00;;;1.00;;
11933;SDS011;6026;48.784;9.198;2022-08-21T09:34:57;1.00;;;1.00;;
11933;SDS011;6026;48.784;9.198;2022-08-21T09:37:24;1.00;;;1.00;;
11933;SDS011;6026;48.784;9.198;2022-08-21T09:39:51;1.08;;;1.08;;
11933;SDS011;6026;48.784;9.198;2022-08-21T09:42:30;1.05;;;1.05;;
11933;SDS011;6026;48.784;9.198;2022-08-21T09:45:16;1.10;;;1.10;;
11933;SDS011;6026;48.784;9.198;2022-08-21T09:47:43;1.10;;;1.10;;
11933;SDS011;6026;48.784;9.198;2022-08-21T09:50:31;1.10;;;1.10;;
11933;SDS011;6026;48.784;9.198;2022-08-21T09:52:57;1.13;;;1.13;;
11933;SDS011;6026;48.784;9.198;2022-08-21T09:55:30;1.10;;;1.10;;
11933;SDS011;6026;48.784;9.198;2022-08-21T09:58:21;1.20;;;1.20;;
11933;SDS011;6026;48.784;9.198;2022-08-21T10:01:00;2.38;;;2.30;;
11933;SDS011;6026;48.784;9.198;2022-08-21T10:03:27;1.10;;;1.10;;
11933;SDS011;6026;48.784;9.198;2022-08-21T10:05:55;1.10;;;1.10;;
11933;SDS011;6026;48.784;9.198;2022-08-21T10:08:27;1.10;;;1.10;;
11933;SDS011;6026;48.784;9.198;2022-08-21T10:11:01;1.10;;;1.10;;
11933;SDS011;6026;48.784;9.198;2022-08-21T10:24:32;1.10;;;1.10;;
11933;SDS011;6026;48.784;9.198;2022-08-21T10:27:48;1.10;;;1.10;;
11933;SDS011;6026;48.784;9.198;2022-08-21T10:35:36;1.10;;;1.10;;
11933;SDS011;6026;48.784;9.198;2022-08-21T10:41:01;1.20;;;1.20;;
11933;SDS011;6026;48.784;9.198;2022-08-21T10:43:52;1.20;;;1.20;;
11933;SDS011;6026;48.784;9.198;2022-08-21T10:51:42;1.05;;;1.05;;
11933;SDS011;6026;48.784;9.198;2022-08-21T10:54:29;1.05;;;1.05;;
11933;SDS011;6026;48.784;9.198;2022-08-21T10:57:00;1.10;;;1.10;;
11933;SDS011;6026;48.784;9.198;2022-08-21T11:05:31;1.05;;;1.05;;
11933;SDS011;6026;48.784;9.198;2022-08-21T11:08:05;1.08;;;1.08;;
11933;SDS011;6026;48.784;9.198;2022-08-21T11:22:06;1.10;;;1.10;;
11933;SDS011;6026;48.784;9.198;2022-08-21T11:24:50;1.08;;;1.08;;
11933;SDS011;6026;48.784;9.198;2022-08-21T11:27:23;1.00;;;1.00;;
11933;SDS011;6026;48.784;9.198;2022-08-21T11:29:59;1.10;;;1.10;;
11933;SDS011;6026;48.784;9.198;2022-08-21T11:44:17;1.10;;;1.10;;
11933;SDS011;6026;48.784;9.198;2022-08-21T11:57:35;1.10;;;1.10;;
11933;SDS011;6026;48.784;9.198;2022-08-21T12:02:42;1.02;;;1.02;;
11933;SDS011;6026;48.784;9.198;2022-08-21T12:05:34;1.17;;;1.17;;
11933;SDS011;6026;48.784;9.198;2022-08-21T12:08:15;1.40;;;1.40;;
11933;SDS011;6026;48.784;9.198;2022-08-21T12:11:02;1.10;;;1.10;;
11933;SDS011;6026;48.784;9.198;2022-08-21T12:13:34;1.08;;;1.08;;
11933;SDS011;6026;48.784;9.198;2022-08-21T12:16:13;1.08;;;1.08;;
11933;SDS011;6026;48.784;9.198;2022-08-21T12:24:33;1.15;;;1.15;;
11933;SDS011;6026;48.784;9.198;2022-08-21T12:32:54;1.17;;;1.17;;
11933;SDS011;6026;48.784;9.198;2022-08-21T12:35:25;1.10;;;1.10;;
11933;SDS011;6026;48.784;9.198;2022-08-21T12:40:40;1.10;;;1.10;;
11933;SDS011;6026;48.784;9.198;2022-08-21T12:49:34;1.15;;;1.15;;
11933;SDS011;6026;48.784;9.198;2022-08-21T12:52:05;1.10;;;1.10;;
11933;SDS011;6026;48.784;9.198;2022-08-21T12:54:42;1.15;;;1.15;;
11933;SDS011;6026;48.784;9.198;2022-08-21T12:57:09;1.20;;;1.20;;
11933;SDS011;6026;48.784;9.198;2022-08-21T12:59:54;1.20;;;1.20;;
11933;SDS011;6026;48.784;9.198;2022-08-21T13:02:24;1.20;;;1.20;;
11933;SDS011;6026;48.784;9.198;2022-08-21T13:04:56;1.20;;;1.20;;
11933;SDS011;6026;48.784;9.198;2022-08-21T13:07:29;1.20;;;1.20;;
11933;SDS011;6026;48.784;9.198;2022-08-21T13:12:26;1.17;;;1.17;;
11933;SDS011;6026;48.784;9.198;2022-08-21T13:14:55;1.10;;;1.10;;
11933;SDS011;6026;48.784;9.198;2022-08-21T13:17:23;1.15;;;1.15;;
11933;SDS011;6026;48.784;9.198;2022-08-21T13:19:58;1.10;;;1.10;;
11933;SDS011;6026;48.784;9.198;2022-08-21T13:22:26;1.10;;;1.10;;
11933;SDS011;6026;48.784;9.198;2022-08-21T13:24:53;1.10;;;1.10;;
11933;SDS011;6026;48.784;9.198;2022-08-21T13:27:27;1.10;;;1.10;;
11933;SDS011;6026;48.784;9.198;2022-08-21T13:32:51;1.15;;;1.15;;
11933;SDS011;6026;48.784;9.198;2022-08-21T13:36:07;1.10;;;1.10;;
11933;SDS011;6026;48.784;9.198;2022-08-21T13:38:25;1.10;;;1.10;;
11933;SDS011;6026;48.784;9.198;2022-08-21T13:40:55;1.20;;;1.20;;
11933;SDS011;6026;48.784;9.198;2022-08-21T13:43:27;1.15;;;1.15;;
11933;SDS011;6026;48.784;9.198;2022-08-21T13:45:56;1.20;;;1.20;;
11933;SDS011;6026;48.784;9.198;2022-08-21T13:48:24;1.10;;;1.10;;
11933;SDS011;6026;48.784;9.198;2022-08-21T13:50:52;1.20;;;1.20;;
11933;SDS011;6026;48.784;9.198;2022-08-21T13:53:21;1.20;;;1.20;;
11933;SDS011;6026;48.784;9.198;2022-08-21T13:55:58;1.17;;;1.17;;
11933;SDS011;6026;48.784;9.198;2022-08-21T13:58:26;1.20;;;1.20;;
11933;SDS011;6026;48.784;9.198;2022-08-21T14:01:15;1.20;;;1.20;;
11933;SDS011;6026;48.784;9.198;2022-08-21T14:03:48;1.20;;;1.20;;
11933;SDS011;6026;48.784;9.198;2022-08-21T14:06:17;1.20;;;1.20;;
11933;SDS011;6026;48.784;9.198;2022-08-21T14:08:49;1.20;;;1.20;;
11933;SDS011;6026;48.784;9.198;2022-08-21T14:11:18;1.20;;;1.20;;
11933;SDS011;6026;48.784;9.198;2022-08-21T14:13:45;1.17;;;1.17;;
11933;SDS011;6026;48.784;9.198;2022-08-21T14:16:22;1.17;;;1.17;;
11933;SDS011;6026;48.784;9.198;2022-08-21T14:21:27;1.20;;;1.20;;
11933;SDS011;6026;48.784;9.198;2022-08-21T14:24:08;1.10;;;1.10;;
11933;SDS011;6026;48.784;9.198;2022-08-21T14:26:53;1.10;;;1.10;;
11933;SDS011;6026;48.784;9.198;2022-08-21T14:29:19;1.10;;;1.10;;
11933;SDS011;6026;48.784;9.198;2022-08-21T14:31:51;1.10;;;1.10;;
11933;SDS011;6026;48.784;9.198;2022-08-21T14:34:20;1.02;;;1.02;;
11933;SDS011;6026;48.784;9.198;2022-08-21T14:36:49;1.13;;;1.13;;
11933;SDS011;6026;48.784;9.198;2022-08-21T14:39:15;1.13;;;1.13;;
11933;SDS011;6026;48.784;9.198;2022-08-21T14:41:41;1.10;;;1.10;;
11933;SDS011;6026;48.784;9.198;2022-08-21T14:44:07;1.10;;;1.10;;
11933;SDS011;6026;48.784;9.198;2022-08-21T14:46:34;1.15;;;1.15;;
11933;SDS011;6026;48.784;9.198;2022-08-21T14:49:00;1.17;;;1.17;;
11933;SDS011;6026;48.784;9.198;2022-08-21T14:51:26;1.10;;;1.10;;
11933;SDS011;6026;48.784;9.198;2022-08-21T14:53:52;1.13;;;1.13;;
11933;SDS011;6026;48.784;9.198;2022-08-21T14:56:18;1.10;;;1.10;;
11933;SDS011;6026;48.784;9.198;2022-08-21T14:58:45;1.10;;;1.10;;
11933;SDS011;6026;48.784;9.198;2022-08-21T15:01:14;1.10;;;1.10;;
11933;SDS011;6026;48.784;9.198;2022-08-21T15:03:41;1.15;;;1.15;;
11933;SDS011;6026;48.784;9.198;2022-08-21T15:06:07;1.10;;;1.10;;
11933;SDS011;6026;48.784;9.198;2022-08-21T15:08:33;1.13;;;1.13;;
11933;SDS011;6026;48.784;9.198;2022-08-21T15:10:59;1.17;;;1.17;;
11933;SDS011;6026;48.784;9.198;2022-08-21T15:13:26;1.15;;;1.15;;
11933;SDS011;6026;48.784;9.198;2022-08-21T15:15:52;1.02;;;1.02;;
11933;SDS011;6026;48.784;9.198;2022-08-21T15:18:19;1.20;;;1.20;;
11933;SDS011;6026;48.784;9.198;2022-08-21T15:20:45;1.10;;;1.10;;
11933;SDS011;6026;48.784;9.198;2022-08-21T15:23:11;1.10;;;1.10;;
11933;SDS011;6026;48.784;9.198;2022-08-21T15:25:39;1.15;;;1.15;;
11933;SDS011;6026;48.784;9.198;2022-08-21T15:28:09;1.05;;;1.05;;
11933;SDS011;6026;48.784;9.198;2022-08-21T15:30:36;1.10;;;1.10;;
11933;SDS011;6026;48.784;9.198;2022-08-21T15:33:03;1.10;;;1.10;;
11933;SDS011;6026;48.784;9.198;2022-08-21T15:35:29;1.13;;;1.13;;
11933;SDS011;6026;48.784;9.198;2022-08-21T15:37:55;1.10;;;1.10;;
11933;SDS011;6026;48.784;9.198;2022-08-21T15:40:21;1.20;;;1.20;;
11933;SDS011;6026;48.784;9.198;2022-08-21T15:42:47;1.15;;;1.15;;
11933;SDS011;6026;48.784;9.198;2022-08-21T15:45:12;1.10;;;1.10;;
11933;SDS011;6026;48.784;9.198;2022-08-21T15:47:42;1.10;;;1.10;;
11933;SDS011;6026;48.784;9.198;2022-08-21T15:50:09;1.10;;;1.10;;
11933;SDS011;6026;48.784;9.198;2022-08-21T15:52:37;1.20;;;1.20;;
11933;SDS011;6026;48.784;9.198;2022-08-21T15:55:04;1.10;;;1.10;;
11933;SDS011;6026;48.784;9.198;2022-08-21T15:57:30;1.10;;;1.10;;
11933;SDS011;6026;48.784;9.198;2022-08-21T15:59:57;1.10;;;1.10;;
11933;SDS011;6026;48.784;9.198;2022-08-21T16:02:36;1.10;;;1.10;;
11933;SDS011;6026;48.784;9.198;2022-08-21T16:05:03;1.20;;;1.20;;
11933;SDS011;6026;48.784;9.198;2022-08-21T16:07:29;1.10;;;1.10;;
11933;SDS011;6026;48.784;9.198;2022-08-21T16:09:54;1.10;;;1.10;;
11933;SDS011;6026;48.784;9.198;2022-08-21T16:12:27;1.10;;;1.10;;
11933;SDS011;6026;48.784;9.198;2022-08-21T16:14:56;1.17;;;1.17;;
11933;SDS011;6026;48.784;9.198;2022-08-21T16:17:24;1.10;;;1.10;;
11933;SDS011;6026;48.784;9.198;2022-08-21T16:19:56;1.05;;;1.05;;
11933;SDS011;6026;48.784;9.198;2022-08-21T16:22:23;1.10;;;1.10;;
11933;SDS011;6026;48.784;9.198;2022-08-21T16:24:48;1.10;;;1.10;;
11933;SDS011;6026;48.784;9.198;2022-08-21T16:27:14;1.10;;;1.10;;
11933;SDS011;6026;48.784;9.198;2022-08-21T16:29:41;1.00;;;1.00;;
11933;SDS011;6026;48.784;9.198;2022-08-21T16:32:07;1.05;;;1.05;;
11933;SDS011;6026;48.784;9.198;2022-08-21T16:34:33;1.10;;;1.10;;
11933;SDS011;6026;48.784;9.198;2022-08-21T16:37:00;1.00;;;1.00;;
11933;SDS011;6026;48.784;9.198;2022-08-21T16:39:25;1.10;;;1.10;;
11933;SDS011;6026;48.784;9.198;2022-08-21T16:41:51;1.02;;;1.02;;
11933;SDS011;6026;48.784;9.198;2022-08-21T16:44:18;1.10;;;1.10;;
11933;SDS011;6026;48.784;9.198;2022-08-21T16:46:45;1.00;;;1.00;;
11933;SDS011;6026;48.784;9.198;2022-08-21T16:49:11;1.02;;;1.02;;
11933;SDS011;6026;48.784;9.198;2022-08-21T16:51:37;1.10;;;1.10;;
11933;SDS011;6026;48.784;9.198;2022-08-21T16:54:03;1.10;;;1.10;;
11933;SDS011;6026;48.784;9.198;2022-08-21T16:56:29;1.05;;;1.05;;
11933;SDS011;6026;48.784;9.198;2022-08-21T16:58:55;1.05;;;1.05;;
11933;SDS011;6026;48.784;9.198;2022-08-21T17:01:24;1.05;;;1.05;;
11933;SDS011;6026;48.784;9.198;2022-08-21T17:03:52;1.02;;;1.02;;
11933;SDS011;6026;48.784;9.198;2022-08-21T17:06:18;1.02;;;1.02;;
11933;SDS011;6026;48.784;9.198;2022-08-21T17:08:45;1.00;;;1.00;;
11933;SDS011;6026;48.784;9.198;2022-08-21T17:11:15;1.10;;;1.10;;
11933;SDS011;6026;48.784;9.198;2022-08-21T17:13:54;1.00;;;1.00;;
11933;SDS011;6026;48.784;9.198;2022-08-21T17:16:21;1.00;;;1.00;;
11933;SDS011;6026;48.784;9.198;2022-08-21T17:18:47;1.00;;;1.00;;
11933;SDS011;6026;48.784;9.198;2022-08-21T17:21:13;1.00;;;1.00;;
11933;SDS011;6026;48.784;9.198;2022-08-21T17:23:39;1.00;;;1.00;;
11933;SDS011;6026;48.784;9.198;2022-08-21T17:26:05;1.00;;;1.00;;